P.t. Monto — VMBF — position and weather

sailwx.info

Track history (hours):
 
Tides and Currents Weather Stations Pressure Air Temp Water Temp Dewpoint Dewpoint Depression Visibility Wind Speed Wind Dir Waves Ship Positions

P.t. Monto

Last reported at 2016-Jan-15 02:05 UTC. Time now 2016-Feb-13 21:29 UTC.
Position S 39°08' E 146°08'.
Warning: this ship's position is 29 days out of date.

Length 32 m; draft 3.4 m.

Type: Tug. MMSI: 503612000.

Date/timePositionNaut miles runAvg speedWind from/ knotsBaromVisibWave heightAir tempDewpointWater temp
2016-Jan-15 02:05S 39°08' E 146°08'3 6.4
2016-Jan-15 01:33S 39°10' E 146°12'5 5.1
2016-Jan-15 00:33S 39°12' E 146°18'6 5.5
2016-Jan-14 23:33S 39°10' E 146°25'6 6.2
2016-Jan-14 22:34S 39°08' E 146°32'6 5.7
2016-Jan-14 21:34S 39°06' E 146°39'5 5.0
2016-Jan-14 20:33S 39°05' E 146°45'5 4.8
2016-Jan-14 19:32S 39°03' E 146°51'4 4.5
2016-Jan-14 18:33S 39°02' E 146°57'84 3.5
2016-Jan-13 18:22S 38°28' E 148°36'6 7.0
2016-Jan-13 17:33S 38°24' E 148°41'8 7.6
2016-Jan-13 16:33S 38°18' E 148°48'8 7.6
2016-Jan-13 15:33S 38°14' E 148°56'7 7.4
2016-Jan-13 14:33S 38°09' E 149°03'8 7.6
2016-Jan-13 13:33S 38°04' E 149°09'8 7.7
2016-Jan-13 12:33S 37°58' E 149°17'7 7.2
2016-Jan-13 11:33S 37°54' E 149°24'7 7.3
2016-Jan-13 10:34S 37°49' E 149°31'7 7.4
2016-Jan-13 09:33S 37°45' E 149°38'7 7.5
2016-Jan-13 08:33S 37°41' E 149°46'8 7.8
2016-Jan-13 07:33S 37°37' E 149°55'8 7.6
2016-Jan-13 06:33S 37°31' E 150°01'8 7.8
2016-Jan-13 05:34S 37°24' E 150°05'9 8.9
2016-Jan-13 04:33S 37°15' E 150°08'9 9.0
2016-Jan-13 03:33S 37°06' E 150°10'9 8.5
2016-Jan-13 02:33S 36°58' E 150°13'8 8.0
2016-Jan-13 01:33S 36°50' E 150°16'8 7.6
2016-Jan-13 00:34S 36°43' E 150°18'7 7.4
2016-Jan-12 23:34S 36°36' E 150°20'7 7.3
2016-Jan-12 22:33S 36°29' E 150°22'6 5.9
2016-Jan-12 21:33S 36°23' E 150°24'7 6.9
2016-Jan-12 20:30S 36°16' E 150°26'8 7.2
2016-Jan-12 19:21S 36°08' E 150°28'6 7.2
2016-Jan-12 18:33S 36°02' E 150°29'155 4.7
2016-Jan-11 09:33S 33°39' E 151°40'9 8.6
2016-Jan-11 08:33S 33°32' E 151°46'9 8.7
2016-Jan-11 07:34S 33°25' E 151°52'9 9.0
2016-Jan-11 06:33S 33°18' E 151°59'9 9.2
2016-Jan-11 05:34S 33°11' E 152°05'9 9.0
2016-Jan-11 04:33S 33°03' E 152°12'9 9.1
2016-Jan-11 03:33S 32°56' E 152°18'10 9.7
2016-Jan-11 02:33S 32°49' E 152°25'1010.0
2016-Jan-11 01:33S 32°41' E 152°33'329 8.8
2016-Jan-09 12:20S 27°16' E 153°33'7 8.4
2016-Jan-09 11:33S 27°09' E 153°31'17 8.5
2016-Jan-09 09:32S 26°55' E 153°20'11 8.6
2016-Jan-09 08:14S 26°50' E 153°09'5 7.8
2016-Jan-09 07:34S 26°55' E 153°11'9 8.6
2016-Jan-09 06:33S 27°02' E 153°15'8 8.0
2016-Jan-09 05:30S 27°10' E 153°19'9 9.3
2016-Jan-09 04:33S 27°17' E 153°14'12 1.5
2016-Jan-08 20:31S 27°27' E 153°05'0 0.0
2016-Jan-08 19:33S 27°27' E 153°05'0 0.0
2016-Jan-08 11:07S 27°27' E 153°05'0 0.0
2016-Jan-08 08:11S 27°27' E 153°05'0 0.0
2016-Jan-07 15:12S 27°27' E 153°05'0 0.0
2016-Jan-07 14:23S 27°27' E 153°05'0 0.0
2016-Jan-07 13:31S 27°27' E 153°05'0 0.0
2016-Jan-07 12:31S 27°27' E 153°05'  
Track history (hours):
 
Tides and Currents Weather Stations Pressure Air Temp Water Temp Dewpoint Dewpoint Depression Visibility Wind Speed Wind Dir Waves Ship Positions

P.t. Monto

Last reported at 2016-Jan-15 02:05 UTC. Time now 2016-Feb-13 21:29 UTC.
Position S 39°08' E 146°08'.
Warning: this ship's position is 29 days out of date.

Length 32 m; draft 3.4 m.

Type: Tug. MMSI: 503612000.

Date/timePositionNaut miles runAvg speedWind from/ knotsBaromVisibWave heightAir tempDewpointWater temp
2016-Jan-15 02:05S 39°08' E 146°08'3 6.4
2016-Jan-15 01:33S 39°10' E 146°12'5 5.1
2016-Jan-15 00:33S 39°12' E 146°18'6 5.5
2016-Jan-14 23:33S 39°10' E 146°25'6 6.2
2016-Jan-14 22:34S 39°08' E 146°32'6 5.7
2016-Jan-14 21:34S 39°06' E 146°39'5 5.0
2016-Jan-14 20:33S 39°05' E 146°45'5 4.8
2016-Jan-14 19:32S 39°03' E 146°51'4 4.5
2016-Jan-14 18:33S 39°02' E 146°57'84 3.5
2016-Jan-13 18:22S 38°28' E 148°36'6 7.0
2016-Jan-13 17:33S 38°24' E 148°41'8 7.6
2016-Jan-13 16:33S 38°18' E 148°48'8 7.6
2016-Jan-13 15:33S 38°14' E 148°56'7 7.4
2016-Jan-13 14:33S 38°09' E 149°03'8 7.6
2016-Jan-13 13:33S 38°04' E 149°09'8 7.7
2016-Jan-13 12:33S 37°58' E 149°17'7 7.2
2016-Jan-13 11:33S 37°54' E 149°24'7 7.3
2016-Jan-13 10:34S 37°49' E 149°31'7 7.4
2016-Jan-13 09:33S 37°45' E 149°38'7 7.5
2016-Jan-13 08:33S 37°41' E 149°46'8 7.8
2016-Jan-13 07:33S 37°37' E 149°55'8 7.6
2016-Jan-13 06:33S 37°31' E 150°01'8 7.8
2016-Jan-13 05:34S 37°24' E 150°05'9 8.9
2016-Jan-13 04:33S 37°15' E 150°08'9 9.0
2016-Jan-13 03:33S 37°06' E 150°10'9 8.5
2016-Jan-13 02:33S 36°58' E 150°13'8 8.0
2016-Jan-13 01:33S 36°50' E 150°16'8 7.6
2016-Jan-13 00:34S 36°43' E 150°18'7 7.4
2016-Jan-12 23:34S 36°36' E 150°20'7 7.3
2016-Jan-12 22:33S 36°29' E 150°22'6 5.9
2016-Jan-12 21:33S 36°23' E 150°24'7 6.9
2016-Jan-12 20:30S 36°16' E 150°26'8 7.2
2016-Jan-12 19:21S 36°08' E 150°28'6 7.2
2016-Jan-12 18:33S 36°02' E 150°29'155 4.7
2016-Jan-11 09:33S 33°39' E 151°40'9 8.6
2016-Jan-11 08:33S 33°32' E 151°46'9 8.7
2016-Jan-11 07:34S 33°25' E 151°52'9 9.0
2016-Jan-11 06:33S 33°18' E 151°59'9 9.2
2016-Jan-11 05:34S 33°11' E 152°05'9 9.0
2016-Jan-11 04:33S 33°03' E 152°12'9 9.1
2016-Jan-11 03:33S 32°56' E 152°18'10 9.7
2016-Jan-11 02:33S 32°49' E 152°25'1010.0
2016-Jan-11 01:33S 32°41' E 152°33'329 8.8
2016-Jan-09 12:20S 27°16' E 153°33'7 8.4
2016-Jan-09 11:33S 27°09' E 153°31'17 8.5
2016-Jan-09 09:32S 26°55' E 153°20'11 8.6
2016-Jan-09 08:14S 26°50' E 153°09'5 7.8
2016-Jan-09 07:34S 26°55' E 153°11'9 8.6
2016-Jan-09 06:33S 27°02' E 153°15'8 8.0
2016-Jan-09 05:30S 27°10' E 153°19'9 9.3
2016-Jan-09 04:33S 27°17' E 153°14'12 1.5
2016-Jan-08 20:31S 27°27' E 153°05'0 0.0
2016-Jan-08 19:33S 27°27' E 153°05'0 0.0
2016-Jan-08 11:07S 27°27' E 153°05'0 0.0
2016-Jan-08 08:11S 27°27' E 153°05'0 0.0
2016-Jan-07 15:12S 27°27' E 153°05'0 0.0
2016-Jan-07 14:23S 27°27' E 153°05'0 0.0
2016-Jan-07 13:31S 27°27' E 153°05'0 0.0
2016-Jan-07 12:31S 27°27' E 153°05'  

Dump ship's entire track history